sensor_id;sensor_type;location;lat;lon;timestamp;P1;durP1;ratioP1;P2;durP2;ratioP2
67869;SDS011;54673;52.262;6.830;2023-01-01T00:01:22;10.93;;;8.25;;
67869;SDS011;54673;52.262;6.830;2023-01-01T00:03:48;10.53;;;7.77;;
67869;SDS011;54673;52.262;6.830;2023-01-01T00:06:15;13.10;;;8.90;;
67869;SDS011;54673;52.262;6.830;2023-01-01T00:08:40;12.13;;;8.30;;
67869;SDS011;54673;52.262;6.830;2023-01-01T00:11:07;11.23;;;8.23;;
67869;SDS011;54673;52.262;6.830;2023-01-01T00:13:34;13.73;;;9.17;;
67869;SDS011;54673;52.262;6.830;2023-01-01T00:16:08;13.38;;;8.82;;
67869;SDS011;54673;52.262;6.830;2023-01-01T00:18:36;11.40;;;8.63;;
67869;SDS011;54673;52.262;6.830;2023-01-01T00:21:05;13.17;;;9.20;;
67869;SDS011;54673;52.262;6.830;2023-01-01T00:23:32;13.25;;;8.57;;
67869;SDS011;54673;52.262;6.830;2023-01-01T00:25:58;14.63;;;9.30;;
67869;SDS011;54673;52.262;6.830;2023-01-01T00:28:25;14.43;;;9.23;;
67869;SDS011;54673;52.262;6.830;2023-01-01T00:30:51;12.27;;;8.27;;
67869;SDS011;54673;52.262;6.830;2023-01-01T00:33:18;12.10;;;8.37;;
67869;SDS011;54673;52.262;6.830;2023-01-01T00:35:43;12.38;;;8.95;;
67869;SDS011;54673;52.262;6.830;2023-01-01T00:38:09;11.30;;;8.70;;
67869;SDS011;54673;52.262;6.830;2023-01-01T00:40:34;12.33;;;8.33;;
67869;SDS011;54673;52.262;6.830;2023-01-01T00:43:00;13.38;;;8.60;;
67869;SDS011;54673;52.262;6.830;2023-01-01T00:45:26;11.30;;;8.37;;
67869;SDS011;54673;52.262;6.830;2023-01-01T00:47:52;13.43;;;8.45;;
67869;SDS011;54673;52.262;6.830;2023-01-01T00:50:19;10.77;;;8.23;;
67869;SDS011;54673;52.262;6.830;2023-01-01T00:52:46;11.88;;;8.63;;
67869;SDS011;54673;52.262;6.830;2023-01-01T00:55:13;15.63;;;8.60;;
67869;SDS011;54673;52.262;6.830;2023-01-01T00:57:38;11.75;;;8.50;;
67869;SDS011;54673;52.262;6.830;2023-01-01T01:00:04;13.38;;;8.93;;
67869;SDS011;54673;52.262;6.830;2023-01-01T01:02:31;14.20;;;8.33;;
67869;SDS011;54673;52.262;6.830;2023-01-01T01:04:56;11.77;;;8.20;;
67869;SDS011;54673;52.262;6.830;2023-01-01T01:07:23;12.60;;;8.50;;
67869;SDS011;54673;52.262;6.830;2023-01-01T01:09:48;13.30;;;8.43;;
67869;SDS011;54673;52.262;6.830;2023-01-01T01:12:14;13.80;;;8.43;;
67869;SDS011;54673;52.262;6.830;2023-01-01T01:14:39;13.60;;;9.50;;
67869;SDS011;54673;52.262;6.830;2023-01-01T01:17:05;12.93;;;8.32;;
67869;SDS011;54673;52.262;6.830;2023-01-01T01:19:31;12.43;;;8.43;;
67869;SDS011;54673;52.262;6.830;2023-01-01T01:21:56;11.32;;;8.18;;
67869;SDS011;54673;52.262;6.830;2023-01-01T01:24:22;13.13;;;8.50;;
67869;SDS011;54673;52.262;6.830;2023-01-01T01:26:47;12.07;;;8.00;;
67869;SDS011;54673;52.262;6.830;2023-01-01T01:29:13;12.70;;;8.82;;
67869;SDS011;54673;52.262;6.830;2023-01-01T01:31:38;14.20;;;9.70;;
67869;SDS011;54673;52.262;6.830;2023-01-01T01:34:04;12.67;;;8.57;;
67869;SDS011;54673;52.262;6.830;2023-01-01T01:36:30;12.10;;;7.93;;
67869;SDS011;54673;52.262;6.830;2023-01-01T01:38:56;12.37;;;8.30;;
67869;SDS011;54673;52.262;6.830;2023-01-01T01:41:22;13.57;;;8.93;;
67869;SDS011;54673;52.262;6.830;2023-01-01T01:43:53;13.45;;;8.93;;
67869;SDS011;54673;52.262;6.830;2023-01-01T01:46:33;11.60;;;8.60;;
67869;SDS011;54673;52.262;6.830;2023-01-01T01:49:15;10.98;;;8.02;;
67869;SDS011;54673;52.262;6.830;2023-01-01T01:51:45;13.70;;;8.43;;
67869;SDS011;54673;52.262;6.830;2023-01-01T01:54:14;12.00;;;8.35;;
67869;SDS011;54673;52.262;6.830;2023-01-01T01:59:16;11.83;;;7.70;;
67869;SDS011;54673;52.262;6.830;2023-01-01T02:01:44;13.07;;;8.90;;
67869;SDS011;54673;52.262;6.830;2023-01-01T02:04:09;13.30;;;8.70;;
67869;SDS011;54673;52.262;6.830;2023-01-01T02:06:36;11.90;;;8.32;;
67869;SDS011;54673;52.262;6.830;2023-01-01T02:09:03;12.93;;;7.88;;
67869;SDS011;54673;52.262;6.830;2023-01-01T02:11:31;12.63;;;8.23;;
67869;SDS011;54673;52.262;6.830;2023-01-01T02:13:57;12.07;;;7.97;;
67869;SDS011;54673;52.262;6.830;2023-01-01T02:22:00;12.85;;;8.45;;
67869;SDS011;54673;52.262;6.830;2023-01-01T02:27:50;12.32;;;8.05;;
67869;SDS011;54673;52.262;6.830;2023-01-01T02:30:14;10.83;;;7.97;;
67869;SDS011;54673;52.262;6.830;2023-01-01T02:32:41;12.52;;;7.88;;
67869;SDS011;54673;52.262;6.830;2023-01-01T02:35:13;10.95;;;7.97;;
67869;SDS011;54673;52.262;6.830;2023-01-01T02:40:37;12.30;;;7.90;;
67869;SDS011;54673;52.262;6.830;2023-01-01T02:43:06;11.47;;;7.47;;
67869;SDS011;54673;52.262;6.830;2023-01-01T02:45:32;11.45;;;7.57;;
67869;SDS011;54673;52.262;6.830;2023-01-01T02:48:02;11.60;;;7.43;;
67869;SDS011;54673;52.262;6.830;2023-01-01T02:50:29;10.90;;;7.60;;
67869;SDS011;54673;52.262;6.830;2023-01-01T02:55:37;8.60;;;6.63;;
67869;SDS011;54673;52.262;6.830;2023-01-01T03:01:20;10.57;;;6.83;;
67869;SDS011;54673;52.262;6.830;2023-01-01T03:03:53;12.32;;;7.50;;
67869;SDS011;54673;52.262;6.830;2023-01-01T03:06:27;11.32;;;7.88;;
67869;SDS011;54673;52.262;6.830;2023-01-01T03:09:14;10.50;;;7.30;;
67869;SDS011;54673;52.262;6.830;2023-01-01T03:11:47;10.68;;;7.72;;
67869;SDS011;54673;52.262;6.830;2023-01-01T03:14:24;10.33;;;6.73;;
67869;SDS011;54673;52.262;6.830;2023-01-01T03:16:59;9.73;;;7.03;;
67869;SDS011;54673;52.262;6.830;2023-01-01T03:19:32;10.20;;;6.88;;
67869;SDS011;54673;52.262;6.830;2023-01-01T03:22:23;10.00;;;6.90;;
67869;SDS011;54673;52.262;6.830;2023-01-01T03:24:52;9.18;;;6.88;;
67869;SDS011;54673;52.262;6.830;2023-01-01T03:27:23;9.50;;;6.40;;
67869;SDS011;54673;52.262;6.830;2023-01-01T03:29:53;10.80;;;6.70;;
67869;SDS011;54673;52.262;6.830;2023-01-01T03:32:22;10.88;;;7.15;;
67869;SDS011;54673;52.262;6.830;2023-01-01T03:35:15;9.73;;;6.90;;
67869;SDS011;54673;52.262;6.830;2023-01-01T03:37:43;9.05;;;6.47;;
67869;SDS011;54673;52.262;6.830;2023-01-01T03:40:12;10.33;;;6.60;;
67869;SDS011;54673;52.262;6.830;2023-01-01T03:42:40;9.25;;;6.95;;
67869;SDS011;54673;52.262;6.830;2023-01-01T03:45:15;9.60;;;6.82;;
67869;SDS011;54673;52.262;6.830;2023-01-01T03:47:45;8.70;;;6.57;;
67869;SDS011;54673;52.262;6.830;2023-01-01T03:50:11;8.77;;;6.35;;
67869;SDS011;54673;52.262;6.830;2023-01-01T03:55:37;8.43;;;6.40;;
67869;SDS011;54673;52.262;6.830;2023-01-01T03:58:16;10.75;;;6.70;;
67869;SDS011;54673;52.262;6.830;2023-01-01T04:00:50;7.97;;;6.07;;
67869;SDS011;54673;52.262;6.830;2023-01-01T04:03:24;8.43;;;6.30;;
67869;SDS011;54673;52.262;6.830;2023-01-01T04:05:52;8.07;;;6.10;;
67869;SDS011;54673;52.262;6.830;2023-01-01T04:08:18;8.18;;;6.15;;
67869;SDS011;54673;52.262;6.830;2023-01-01T04:10:45;9.10;;;6.47;;
67869;SDS011;54673;52.262;6.830;2023-01-01T04:13:15;8.63;;;5.90;;
67869;SDS011;54673;52.262;6.830;2023-01-01T04:15:40;9.77;;;6.37;;
67869;SDS011;54673;52.262;6.830;2023-01-01T04:18:06;8.77;;;6.22;;
67869;SDS011;54673;52.262;6.830;2023-01-01T04:20:32;9.27;;;6.55;;
67869;SDS011;54673;52.262;6.830;2023-01-01T04:22:58;8.17;;;6.20;;
67869;SDS011;54673;52.262;6.830;2023-01-01T04:25:25;9.80;;;6.28;;
67869;SDS011;54673;52.262;6.830;2023-01-01T04:27:51;9.53;;;6.47;;
67869;SDS011;54673;52.262;6.830;2023-01-01T04:30:17;8.35;;;5.95;;
67869;SDS011;54673;52.262;6.830;2023-01-01T04:32:43;9.93;;;6.50;;
67869;SDS011;54673;52.262;6.830;2023-01-01T04:35:09;7.78;;;5.43;;
67869;SDS011;54673;52.262;6.830;2023-01-01T04:37:37;7.57;;;6.27;;
67869;SDS011;54673;52.262;6.830;2023-01-01T04:40:04;7.72;;;5.70;;
67869;SDS011;54673;52.262;6.830;2023-01-01T04:42:30;7.35;;;5.40;;
67869;SDS011;54673;52.262;6.830;2023-01-01T04:44:55;8.30;;;5.87;;
67869;SDS011;54673;52.262;6.830;2023-01-01T04:47:21;8.37;;;5.53;;
67869;SDS011;54673;52.262;6.830;2023-01-01T04:49:46;7.60;;;5.57;;
67869;SDS011;54673;52.262;6.830;2023-01-01T04:52:12;8.03;;;5.30;;
67869;SDS011;54673;52.262;6.830;2023-01-01T04:54:38;8.10;;;6.10;;
67869;SDS011;54673;52.262;6.830;2023-01-01T04:57:03;8.30;;;5.80;;
67869;SDS011;54673;52.262;6.830;2023-01-01T04:59:29;8.37;;;5.83;;
67869;SDS011;54673;52.262;6.830;2023-01-01T05:01:55;7.50;;;5.82;;
67869;SDS011;54673;52.262;6.830;2023-01-01T05:04:22;8.27;;;5.88;;
67869;SDS011;54673;52.262;6.830;2023-01-01T05:06:47;7.50;;;5.30;;
67869;SDS011;54673;52.262;6.830;2023-01-01T05:09:13;8.03;;;5.97;;
67869;SDS011;54673;52.262;6.830;2023-01-01T05:11:39;7.53;;;5.90;;
67869;SDS011;54673;52.262;6.830;2023-01-01T05:14:04;6.97;;;5.23;;
67869;SDS011;54673;52.262;6.830;2023-01-01T05:16:31;8.32;;;5.40;;
67869;SDS011;54673;52.262;6.830;2023-01-01T05:18:58;7.73;;;5.20;;
67869;SDS011;54673;52.262;6.830;2023-01-01T05:21:30;6.78;;;5.00;;
67869;SDS011;54673;52.262;6.830;2023-01-01T05:23:58;9.07;;;5.50;;
67869;SDS011;54673;52.262;6.830;2023-01-01T05:26:27;7.18;;;5.18;;
67869;SDS011;54673;52.262;6.830;2023-01-01T05:28:58;8.18;;;5.57;;
67869;SDS011;54673;52.262;6.830;2023-01-01T05:31:26;6.47;;;5.10;;
67869;SDS011;54673;52.262;6.830;2023-01-01T05:33:53;7.47;;;5.40;;
67869;SDS011;54673;52.262;6.830;2023-01-01T05:38:47;9.27;;;5.85;;
67869;SDS011;54673;52.262;6.830;2023-01-01T05:41:13;6.30;;;4.97;;
67869;SDS011;54673;52.262;6.830;2023-01-01T05:43:40;7.83;;;5.17;;
67869;SDS011;54673;52.262;6.830;2023-01-01T05:46:07;7.32;;;5.13;;
67869;SDS011;54673;52.262;6.830;2023-01-01T05:48:35;7.77;;;5.07;;
67869;SDS011;54673;52.262;6.830;2023-01-01T05:51:05;6.72;;;4.55;;
67869;SDS011;54673;52.262;6.830;2023-01-01T05:53:33;6.78;;;5.05;;
67869;SDS011;54673;52.262;6.830;2023-01-01T05:56:00;7.80;;;4.80;;
67869;SDS011;54673;52.262;6.830;2023-01-01T05:58:26;6.22;;;4.60;;
67869;SDS011;54673;52.262;6.830;2023-01-01T06:00:53;5.47;;;4.23;;
67869;SDS011;54673;52.262;6.830;2023-01-01T06:03:19;6.03;;;4.50;;
67869;SDS011;54673;52.262;6.830;2023-01-01T06:05:45;5.95;;;4.32;;
67869;SDS011;54673;52.262;6.830;2023-01-01T06:08:11;6.97;;;4.43;;
67869;SDS011;54673;52.262;6.830;2023-01-01T06:10:36;6.63;;;4.63;;
67869;SDS011;54673;52.262;6.830;2023-01-01T06:13:02;5.80;;;4.77;;
67869;SDS011;54673;52.262;6.830;2023-01-01T06:15:27;5.82;;;4.10;;
67869;SDS011;54673;52.262;6.830;2023-01-01T06:17:53;6.33;;;4.37;;
67869;SDS011;54673;52.262;6.830;2023-01-01T06:20:19;5.60;;;4.43;;
67869;SDS011;54673;52.262;6.830;2023-01-01T06:22:44;5.55;;;4.30;;
67869;SDS011;54673;52.262;6.830;2023-01-01T06:25:10;5.63;;;4.00;;
67869;SDS011;54673;52.262;6.830;2023-01-01T06:27:37;6.85;;;4.55;;
67869;SDS011;54673;52.262;6.830;2023-01-01T06:30:03;4.95;;;4.00;;
67869;SDS011;54673;52.262;6.830;2023-01-01T06:32:30;5.53;;;4.30;;
67869;SDS011;54673;52.262;6.830;2023-01-01T06:34:56;6.50;;;4.13;;
67869;SDS011;54673;52.262;6.830;2023-01-01T06:37:22;6.07;;;4.07;;
67869;SDS011;54673;52.262;6.830;2023-01-01T06:39:47;6.32;;;4.53;;
67869;SDS011;54673;52.262;6.830;2023-01-01T06:42:13;5.00;;;4.20;;
67869;SDS011;54673;52.262;6.830;2023-01-01T06:44:39;5.22;;;4.35;;
67869;SDS011;54673;52.262;6.830;2023-01-01T06:47:05;5.93;;;4.53;;
67869;SDS011;54673;52.262;6.830;2023-01-01T06:49:30;6.03;;;4.45;;
67869;SDS011;54673;52.262;6.830;2023-01-01T06:51:56;4.73;;;4.10;;
67869;SDS011;54673;52.262;6.830;2023-01-01T06:54:22;5.82;;;4.30;;
67869;SDS011;54673;52.262;6.830;2023-01-01T06:56:47;5.10;;;4.20;;
67869;SDS011;54673;52.262;6.830;2023-01-01T06:59:14;5.68;;;4.10;;
67869;SDS011;54673;52.262;6.830;2023-01-01T07:01:40;5.77;;;4.10;;
67869;SDS011;54673;52.262;6.830;2023-01-01T07:04:09;6.25;;;3.72;;
67869;SDS011;54673;52.262;6.830;2023-01-01T07:06:36;6.80;;;3.90;;
67869;SDS011;54673;52.262;6.830;2023-01-01T07:09:02;5.60;;;3.80;;
67869;SDS011;54673;52.262;6.830;2023-01-01T07:11:29;4.67;;;3.57;;
67869;SDS011;54673;52.262;6.830;2023-01-01T07:13:55;5.72;;;3.50;;
67869;SDS011;54673;52.262;6.830;2023-01-01T07:16:21;5.63;;;3.93;;
67869;SDS011;54673;52.262;6.830;2023-01-01T07:18:47;4.43;;;3.40;;
67869;SDS011;54673;52.262;6.830;2023-01-01T07:21:21;6.22;;;3.50;;
67869;SDS011;54673;52.262;6.830;2023-01-01T07:23:51;5.77;;;3.70;;
67869;SDS011;54673;52.262;6.830;2023-01-01T07:26:17;4.50;;;3.70;;
67869;SDS011;54673;52.262;6.830;2023-01-01T07:28:42;4.03;;;3.17;;
67869;SDS011;54673;52.262;6.830;2023-01-01T07:31:09;8.00;;;3.50;;
67869;SDS011;54673;52.262;6.830;2023-01-01T07:33:34;5.20;;;3.47;;
67869;SDS011;54673;52.262;6.830;2023-01-01T07:36:00;4.53;;;3.10;;
67869;SDS011;54673;52.262;6.830;2023-01-01T07:38:25;5.17;;;3.50;;
67869;SDS011;54673;52.262;6.830;2023-01-01T07:40:51;5.32;;;3.80;;
67869;SDS011;54673;52.262;6.830;2023-01-01T07:43:16;6.13;;;2.97;;
67869;SDS011;54673;52.262;6.830;2023-01-01T07:45:42;4.43;;;3.10;;
67869;SDS011;54673;52.262;6.830;2023-01-01T07:48:08;5.07;;;3.20;;
67869;SDS011;54673;52.262;6.830;2023-01-01T07:50:38;5.57;;;3.07;;
67869;SDS011;54673;52.262;6.830;2023-01-01T07:53:04;4.00;;;3.10;;
67869;SDS011;54673;52.262;6.830;2023-01-01T07:55:29;4.25;;;2.90;;
67869;SDS011;54673;52.262;6.830;2023-01-01T07:57:56;5.27;;;3.33;;
67869;SDS011;54673;52.262;6.830;2023-01-01T08:00:21;3.60;;;2.80;;
67869;SDS011;54673;52.262;6.830;2023-01-01T08:02:47;5.33;;;2.77;;
67869;SDS011;54673;52.262;6.830;2023-01-01T08:05:13;3.97;;;2.47;;
67869;SDS011;54673;52.262;6.830;2023-01-01T08:07:39;4.00;;;2.73;;
67869;SDS011;54673;52.262;6.830;2023-01-01T08:10:05;3.22;;;2.30;;
67869;SDS011;54673;52.262;6.830;2023-01-01T08:12:31;4.10;;;2.77;;
67869;SDS011;54673;52.262;6.830;2023-01-01T08:14:57;4.43;;;2.53;;
67869;SDS011;54673;52.262;6.830;2023-01-01T08:17:22;4.00;;;2.77;;
67869;SDS011;54673;52.262;6.830;2023-01-01T08:19:48;4.18;;;2.40;;
67869;SDS011;54673;52.262;6.830;2023-01-01T08:22:15;3.40;;;2.17;;
67869;SDS011;54673;52.262;6.830;2023-01-01T08:24:40;2.97;;;2.20;;
67869;SDS011;54673;52.262;6.830;2023-01-01T08:27:06;4.93;;;2.17;;
67869;SDS011;54673;52.262;6.830;2023-01-01T08:29:34;2.88;;;2.20;;
67869;SDS011;54673;52.262;6.830;2023-01-01T08:32:00;3.53;;;2.40;;
67869;SDS011;54673;52.262;6.830;2023-01-01T08:34:25;3.58;;;2.40;;
67869;SDS011;54673;52.262;6.830;2023-01-01T08:36:51;3.43;;;2.30;;
67869;SDS011;54673;52.262;6.830;2023-01-01T08:39:16;3.93;;;2.10;;
67869;SDS011;54673;52.262;6.830;2023-01-01T08:41:42;2.85;;;2.05;;
67869;SDS011;54673;52.262;6.830;2023-01-01T08:44:07;3.83;;;2.23;;
67869;SDS011;54673;52.262;6.830;2023-01-01T08:46:33;4.67;;;2.40;;
67869;SDS011;54673;52.262;6.830;2023-01-01T08:48:58;2.45;;;1.90;;
67869;SDS011;54673;52.262;6.830;2023-01-01T08:51:25;2.90;;;1.80;;
67869;SDS011;54673;52.262;6.830;2023-01-01T08:53:50;2.35;;;1.83;;
67869;SDS011;54673;52.262;6.830;2023-01-01T08:56:16;2.50;;;2.00;;
67869;SDS011;54673;52.262;6.830;2023-01-01T08:58:42;2.22;;;1.98;;
67869;SDS011;54673;52.262;6.830;2023-01-01T09:01:08;2.73;;;2.10;;
67869;SDS011;54673;52.262;6.830;2023-01-01T09:03:34;3.70;;;2.60;;
67869;SDS011;54673;52.262;6.830;2023-01-01T09:06:00;2.23;;;1.83;;
67869;SDS011;54673;52.262;6.830;2023-01-01T09:08:26;2.60;;;1.95;;
67869;SDS011;54673;52.262;6.830;2023-01-01T09:10:52;2.40;;;1.97;;
67869;SDS011;54673;52.262;6.830;2023-01-01T09:13:22;2.13;;;1.80;;
67869;SDS011;54673;52.262;6.830;2023-01-01T09:15:47;3.35;;;2.05;;
67869;SDS011;54673;52.262;6.830;2023-01-01T09:18:13;3.27;;;2.00;;
67869;SDS011;54673;52.262;6.830;2023-01-01T09:20:39;3.17;;;2.08;;
67869;SDS011;54673;52.262;6.830;2023-01-01T09:23:05;2.20;;;1.70;;
67869;SDS011;54673;52.262;6.830;2023-01-01T09:25:32;2.33;;;1.80;;
67869;SDS011;54673;52.262;6.830;2023-01-01T09:28:05;2.33;;;1.50;;
67869;SDS011;54673;52.262;6.830;2023-01-01T09:30:33;2.70;;;1.90;;
67869;SDS011;54673;52.262;6.830;2023-01-01T09:33:00;2.70;;;2.20;;
67869;SDS011;54673;52.262;6.830;2023-01-01T09:35:26;4.03;;;1.75;;
67869;SDS011;54673;52.262;6.830;2023-01-01T09:37:53;2.00;;;1.73;;
67869;SDS011;54673;52.262;6.830;2023-01-01T09:40:30;2.30;;;1.60;;
67869;SDS011;54673;52.262;6.830;2023-01-01T09:43:21;1.98;;;1.50;;
67869;SDS011;54673;52.262;6.830;2023-01-01T09:48:13;2.23;;;1.60;;
67869;SDS011;54673;52.262;6.830;2023-01-01T09:50:42;2.88;;;1.70;;
67869;SDS011;54673;52.262;6.830;2023-01-01T09:53:44;1.85;;;1.38;;
67869;SDS011;54673;52.262;6.830;2023-01-01T09:56:27;2.70;;;1.47;;
67869;SDS011;54673;52.262;6.830;2023-01-01T09:58:55;2.47;;;1.73;;
67869;SDS011;54673;52.262;6.830;2023-01-01T10:01:36;1.63;;;1.53;;
67869;SDS011;54673;52.262;6.830;2023-01-01T10:06:57;2.30;;;1.42;;
67869;SDS011;54673;52.262;6.830;2023-01-01T10:12:42;2.15;;;1.60;;
67869;SDS011;54673;52.262;6.830;2023-01-01T10:15:39;3.10;;;1.60;;
67869;SDS011;54673;52.262;6.830;2023-01-01T10:18:16;2.95;;;1.70;;
67869;SDS011;54673;52.262;6.830;2023-01-01T10:20:46;3.15;;;1.85;;
67869;SDS011;54673;52.262;6.830;2023-01-01T10:23:22;1.70;;;1.50;;
67869;SDS011;54673;52.262;6.830;2023-01-01T10:25:52;2.75;;;1.58;;
67869;SDS011;54673;52.262;6.830;2023-01-01T10:28:28;1.97;;;1.70;;
67869;SDS011;54673;52.262;6.830;2023-01-01T10:31:10;3.78;;;1.92;;
67869;SDS011;54673;52.262;6.830;2023-01-01T10:33:58;2.00;;;1.50;;
67869;SDS011;54673;52.262;6.830;2023-01-01T10:36:44;2.10;;;1.60;;
67869;SDS011;54673;52.262;6.830;2023-01-01T10:39:14;2.05;;;1.30;;
67869;SDS011;54673;52.262;6.830;2023-01-01T10:41:41;3.37;;;1.80;;
67869;SDS011;54673;52.262;6.830;2023-01-01T10:44:07;2.47;;;1.48;;
67869;SDS011;54673;52.262;6.830;2023-01-01T10:46:36;2.13;;;1.58;;
67869;SDS011;54673;52.262;6.830;2023-01-01T10:49:12;2.17;;;1.67;;
67869;SDS011;54673;52.262;6.830;2023-01-01T10:51:45;2.15;;;1.58;;
67869;SDS011;54673;52.262;6.830;2023-01-01T10:57:12;2.40;;;1.60;;
67869;SDS011;54673;52.262;6.830;2023-01-01T10:59:40;2.28;;;1.65;;
67869;SDS011;54673;52.262;6.830;2023-01-01T11:02:13;2.20;;;1.50;;
67869;SDS011;54673;52.262;6.830;2023-01-01T11:04:41;1.75;;;1.58;;
67869;SDS011;54673;52.262;6.830;2023-01-01T11:07:06;2.87;;;1.57;;
67869;SDS011;54673;52.262;6.830;2023-01-01T11:09:33;2.38;;;1.35;;
67869;SDS011;54673;52.262;6.830;2023-01-01T11:12:04;2.50;;;1.30;;
67869;SDS011;54673;52.262;6.830;2023-01-01T11:17:05;2.17;;;1.55;;
67869;SDS011;54673;52.262;6.830;2023-01-01T11:19:33;2.07;;;1.40;;
67869;SDS011;54673;52.262;6.830;2023-01-01T11:22:00;2.00;;;1.33;;
67869;SDS011;54673;52.262;6.830;2023-01-01T11:24:28;2.60;;;1.30;;
67869;SDS011;54673;52.262;6.830;2023-01-01T11:27:43;3.40;;;1.57;;
67869;SDS011;54673;52.262;6.830;2023-01-01T11:29:48;2.25;;;1.30;;
67869;SDS011;54673;52.262;6.830;2023-01-01T11:32:20;2.40;;;1.30;;
67869;SDS011;54673;52.262;6.830;2023-01-01T11:34:56;3.10;;;1.30;;
67869;SDS011;54673;52.262;6.830;2023-01-01T11:37:25;4.10;;;1.15;;
67869;SDS011;54673;52.262;6.830;2023-01-01T11:39:58;4.07;;;1.40;;
67869;SDS011;54673;52.262;6.830;2023-01-01T11:42:27;2.67;;;1.35;;
67869;SDS011;54673;52.262;6.830;2023-01-01T11:45:02;2.17;;;1.17;;
67869;SDS011;54673;52.262;6.830;2023-01-01T11:47:35;1.77;;;1.15;;
67869;SDS011;54673;52.262;6.830;2023-01-01T11:52:38;1.53;;;1.00;;
67869;SDS011;54673;52.262;6.830;2023-01-01T12:00:51;4.32;;;1.05;;
67869;SDS011;54673;52.262;6.830;2023-01-01T12:06:34;2.17;;;1.30;;
67869;SDS011;54673;52.262;6.830;2023-01-01T12:11:52;1.53;;;1.10;;
67869;SDS011;54673;52.262;6.830;2023-01-01T12:14:41;1.92;;;1.30;;
67869;SDS011;54673;52.262;6.830;2023-01-01T12:17:32;2.22;;;1.35;;
67869;SDS011;54673;52.262;6.830;2023-01-01T12:22:35;2.13;;;1.10;;
67869;SDS011;54673;52.262;6.830;2023-01-01T12:25:01;1.20;;;1.10;;
67869;SDS011;54673;52.262;6.830;2023-01-01T12:41:13;1.40;;;1.10;;
67869;SDS011;54673;52.262;6.830;2023-01-01T12:57:56;1.77;;;1.13;;
67869;SDS011;54673;52.262;6.830;2023-01-01T13:00:56;1.65;;;1.08;;
67869;SDS011;54673;52.262;6.830;2023-01-01T13:03:46;1.45;;;1.00;;
67869;SDS011;54673;52.262;6.830;2023-01-01T13:06:30;1.97;;;1.20;;
67869;SDS011;54673;52.262;6.830;2023-01-01T13:09:04;2.63;;;1.20;;
67869;SDS011;54673;52.262;6.830;2023-01-01T13:11:35;2.20;;;1.30;;
67869;SDS011;54673;52.262;6.830;2023-01-01T13:14:02;2.53;;;1.20;;
67869;SDS011;54673;52.262;6.830;2023-01-01T13:16:35;2.85;;;1.20;;
67869;SDS011;54673;52.262;6.830;2023-01-01T13:19:05;2.20;;;1.30;;
67869;SDS011;54673;52.262;6.830;2023-01-01T13:21:47;1.83;;;1.40;;
67869;SDS011;54673;52.262;6.830;2023-01-01T13:24:20;2.50;;;1.27;;
67869;SDS011;54673;52.262;6.830;2023-01-01T13:26:47;2.33;;;1.20;;
67869;SDS011;54673;52.262;6.830;2023-01-01T13:39:50;2.03;;;1.23;;
67869;SDS011;54673;52.262;6.830;2023-01-01T13:45:29;1.47;;;1.20;;
67869;SDS011;54673;52.262;6.830;2023-01-01T13:53:56;3.40;;;1.10;;
67869;SDS011;54673;52.262;6.830;2023-01-01T13:57:12;1.88;;;1.30;;
67869;SDS011;54673;52.262;6.830;2023-01-01T14:00:13;2.40;;;1.20;;
67869;SDS011;54673;52.262;6.830;2023-01-01T14:02:49;2.42;;;1.10;;
67869;SDS011;54673;52.262;6.830;2023-01-01T14:05:28;5.10;;;1.20;;
67869;SDS011;54673;52.262;6.830;2023-01-01T14:07:58;4.57;;;1.20;;
67869;SDS011;54673;52.262;6.830;2023-01-01T14:10:27;2.03;;;1.35;;
67869;SDS011;54673;52.262;6.830;2023-01-01T14:18:09;3.55;;;1.20;;
67869;SDS011;54673;52.262;6.830;2023-01-01T14:20:41;5.10;;;1.13;;
67869;SDS011;54673;52.262;6.830;2023-01-01T14:23:14;4.05;;;1.30;;
67869;SDS011;54673;52.262;6.830;2023-01-01T14:25:50;1.87;;;1.20;;
67869;SDS011;54673;52.262;6.830;2023-01-01T14:28:26;2.13;;;1.13;;
67869;SDS011;54673;52.262;6.830;2023-01-01T14:30:53;4.07;;;1.30;;
67869;SDS011;54673;52.262;6.830;2023-01-01T14:33:26;3.70;;;1.30;;
67869;SDS011;54673;52.262;6.830;2023-01-01T14:35:57;2.58;;;1.15;;
67869;SDS011;54673;52.262;6.830;2023-01-01T14:38:26;1.93;;;1.17;;
67869;SDS011;54673;52.262;6.830;2023-01-01T14:43:41;3.10;;;1.40;;
67869;SDS011;54673;52.262;6.830;2023-01-01T14:46:16;3.27;;;1.40;;
67869;SDS011;54673;52.262;6.830;2023-01-01T14:48:48;2.28;;;1.20;;
67869;SDS011;54673;52.262;6.830;2023-01-01T14:51:18;1.63;;;1.20;;
67869;SDS011;54673;52.262;6.830;2023-01-01T14:53:46;2.20;;;1.38;;
67869;SDS011;54673;52.262;6.830;2023-01-01T14:58:48;1.93;;;1.17;;
67869;SDS011;54673;52.262;6.830;2023-01-01T15:01:15;2.45;;;1.40;;
67869;SDS011;54673;52.262;6.830;2023-01-01T15:04:02;3.03;;;1.37;;
67869;SDS011;54673;52.262;6.830;2023-01-01T15:06:29;2.28;;;1.20;;
67869;SDS011;54673;52.262;6.830;2023-01-01T15:08:56;11.65;;;1.35;;
67869;SDS011;54673;52.262;6.830;2023-01-01T15:11:22;3.10;;;1.27;;
67869;SDS011;54673;52.262;6.830;2023-01-01T15:13:52;1.95;;;1.17;;
67869;SDS011;54673;52.262;6.830;2023-01-01T15:16:19;3.77;;;1.40;;
67869;SDS011;54673;52.262;6.830;2023-01-01T15:18:46;2.00;;;1.20;;
67869;SDS011;54673;52.262;6.830;2023-01-01T15:21:16;6.30;;;1.20;;
67869;SDS011;54673;52.262;6.830;2023-01-01T15:23:58;3.30;;;1.03;;
67869;SDS011;54673;52.262;6.830;2023-01-01T15:26:28;3.63;;;1.25;;
67869;SDS011;54673;52.262;6.830;2023-01-01T15:28:56;2.47;;;1.40;;
67869;SDS011;54673;52.262;6.830;2023-01-01T15:31:23;1.73;;;1.10;;
67869;SDS011;54673;52.262;6.830;2023-01-01T15:34:02;3.05;;;1.20;;
67869;SDS011;54673;52.262;6.830;2023-01-01T15:36:28;2.53;;;1.20;;
67869;SDS011;54673;52.262;6.830;2023-01-01T15:38:54;4.00;;;1.00;;
67869;SDS011;54673;52.262;6.830;2023-01-01T15:41:24;3.83;;;1.20;;
67869;SDS011;54673;52.262;6.830;2023-01-01T15:44:17;2.25;;;1.20;;
67869;SDS011;54673;52.262;6.830;2023-01-01T15:46:44;1.77;;;1.20;;
67869;SDS011;54673;52.262;6.830;2023-01-01T15:49:21;1.33;;;1.00;;
67869;SDS011;54673;52.262;6.830;2023-01-01T15:51:49;2.10;;;1.23;;
67869;SDS011;54673;52.262;6.830;2023-01-01T15:54:15;2.20;;;1.10;;
67869;SDS011;54673;52.262;6.830;2023-01-01T15:56:42;1.58;;;0.93;;
67869;SDS011;54673;52.262;6.830;2023-01-01T15:59:22;1.90;;;1.10;;
67869;SDS011;54673;52.262;6.830;2023-01-01T16:04:43;1.48;;;0.80;;
67869;SDS011;54673;52.262;6.830;2023-01-01T16:07:14;2.00;;;1.30;;
67869;SDS011;54673;52.262;6.830;2023-01-01T16:09:44;3.35;;;1.40;;
67869;SDS011;54673;52.262;6.830;2023-01-01T16:12:14;1.37;;;0.90;;
67869;SDS011;54673;52.262;6.830;2023-01-01T16:14:40;1.85;;;1.20;;
67869;SDS011;54673;52.262;6.830;2023-01-01T16:17:08;1.63;;;0.90;;
67869;SDS011;54673;52.262;6.830;2023-01-01T16:19:38;2.63;;;1.30;;
67869;SDS011;54673;52.262;6.830;2023-01-01T16:22:05;1.70;;;1.15;;
67869;SDS011;54673;52.262;6.830;2023-01-01T16:24:30;2.10;;;1.10;;
67869;SDS011;54673;52.262;6.830;2023-01-01T16:26:58;2.08;;;1.15;;
67869;SDS011;54673;52.262;6.830;2023-01-01T16:29:25;1.77;;;0.90;;
67869;SDS011;54673;52.262;6.830;2023-01-01T16:31:50;3.70;;;1.10;;
67869;SDS011;54673;52.262;6.830;2023-01-01T16:34:16;2.17;;;0.93;;
67869;SDS011;54673;52.262;6.830;2023-01-01T16:36:42;2.25;;;1.05;;
67869;SDS011;54673;52.262;6.830;2023-01-01T16:39:09;1.87;;;1.27;;
67869;SDS011;54673;52.262;6.830;2023-01-01T16:41:35;3.92;;;1.17;;
67869;SDS011;54673;52.262;6.830;2023-01-01T16:44:03;1.55;;;1.00;;
67869;SDS011;54673;52.262;6.830;2023-01-01T16:46:29;1.30;;;1.00;;
67869;SDS011;54673;52.262;6.830;2023-01-01T16:48:57;4.60;;;1.02;;
67869;SDS011;54673;52.262;6.830;2023-01-01T16:51:23;6.90;;;1.23;;
67869;SDS011;54673;52.262;6.830;2023-01-01T16:53:51;2.92;;;1.10;;
67869;SDS011;54673;52.262;6.830;2023-01-01T16:56:17;2.10;;;1.20;;